Virginia Beach, VA (23465)

5:36 PM EDT on July 06, 2015 (GMT -0400)
Kempsville | | Change Station
CLOSE
Current Station
Personal Weather Station
Location: Virginia Beach, VA
Elevation: 20 ft
Nearby Weather Stations

Elev 20 ft 36.80 °N, 76.19 °W | Updated 7 seconds ago

Overcast
Overcast
79.2 °F
Feels Like 83 °F
N
1.0
Wind Variable Wind from ESE
Gusts 4.0 mph

Today
High -- | Low -- °F
--% Chance of Precip.
Yesterday
High -- | Low -- °F
Precip. -- in
5:51 AM 8:26 PM
Waning Gibbous, 72% visible
Pressure 30.08 in
Visibility 10.0 miles
Clouds Few 8000 ft
Heat Index 83 °F
Dew Point 75 °F
Humidity 87%
Rainfall 0.22 in
Snow Depth Not available.
UV 5 out of 12
Pollen 1.80 out of 12
Air Quality Not available.
Flu Activity Not available.
METAR KORF 062051Z 17009KT 10SM FEW080 28/22 A3008 RMK AO2 SLP184 60021 T02830217 58002

More Conditions Fewer Conditions

Pressure 30.08 in
Visibility 10.0 miles
Clouds Few 8000 ft
Heat Index 83 °F
Dew Point 75 °F
Humidity 87%
Rainfall 0.22 in
Snow Depth Not available.
UV 5 out of 12
Pollen 1.80 out of 12
Air Quality Not available.
Flu Activity Not available.
METAR KORF 062051Z 17009KT 10SM FEW080 28/22 A3008 RMK AO2 SLP184 60021 T02830217 58002

More Conditions Fewer Conditions

10-Day Weather Forecast

×

Almanac

Astronomy

Jul. 06, 2015 Rise Set
Actual Time
Civil Twilight
Nautical Twilight
Astronomical Twilight
Moon
Length of Visible Light
Length of Day
Tomorrow will be .
, % of the Moon is Illuminated

Today's Extremes

State Highs State Lows

Community

WunderPhotos

Upload Photos

1,835,659 photos uploaded!

WunderBlogs® & News

Nearby

Air Quality

  Air Quality AQ Index Pollutant
Not available.

Snow Depth

Station Depth Elevation

Earthquake Activity

City Distance Mag. Time & Date
Minimum magnitude displayed is 2.5.

Coastal Water Temperatures

Place Temperature

Stations

Nearby Weather Stations

Station Location Temp. Windchill Dew Point Humidity Wind Precip. Elev Updated Type